createdAt,value
2022-12-06T00:00:42.895Z,4.05
2022-12-06T00:01:42.957Z,4.13
2022-12-06T00:02:42.896Z,4.13
2022-12-06T00:03:42.945Z,4.06
2022-12-06T00:04:42.895Z,4.02
2022-12-06T00:05:46.261Z,3.96
2022-12-06T00:06:42.863Z,3.96
2022-12-06T00:07:42.923Z,3.92
2022-12-06T00:08:42.853Z,3.94
2022-12-06T00:09:42.870Z,3.87
2022-12-06T00:10:42.841Z,3.84
2022-12-06T00:11:42.837Z,3.81
2022-12-06T00:12:42.835Z,3.81
2022-12-06T00:13:42.825Z,3.74
2022-12-06T00:14:42.838Z,3.77
2022-12-06T00:15:42.801Z,3.83
2022-12-06T00:16:42.842Z,3.83
2022-12-06T00:17:43.227Z,3.80
2022-12-06T00:18:42.791Z,3.80
2022-12-06T00:19:42.788Z,3.83
2022-12-06T00:20:42.789Z,3.76
2022-12-06T00:21:42.777Z,3.70
2022-12-06T00:22:42.757Z,3.80
2022-12-06T00:23:42.752Z,3.73
2022-12-06T00:24:42.769Z,3.76
2022-12-06T00:25:42.752Z,3.69
2022-12-06T00:26:42.735Z,3.65
2022-12-06T00:27:42.729Z,3.56
2022-12-06T00:28:42.713Z,3.65
2022-12-06T00:29:42.737Z,3.53
2022-12-06T00:30:42.703Z,3.60
2022-12-06T00:31:42.766Z,3.60
2022-12-06T00:32:42.692Z,3.58
2022-12-06T00:33:42.705Z,3.56
2022-12-06T00:34:42.675Z,3.66
2022-12-06T00:35:42.707Z,3.60
2022-12-06T00:36:42.668Z,3.62
2022-12-06T00:37:42.663Z,3.66
2022-12-06T00:38:42.707Z,3.58
2022-12-06T00:39:42.653Z,3.70
2022-12-06T00:40:42.651Z,3.62
2022-12-06T00:41:42.653Z,3.53
2022-12-06T00:42:42.639Z,3.58
2022-12-06T00:43:42.622Z,3.53
2022-12-06T00:44:42.629Z,3.59
2022-12-06T00:45:42.625Z,3.60
2022-12-06T00:46:42.607Z,3.58
2022-12-06T00:47:42.618Z,3.70
2022-12-06T00:48:42.588Z,3.70
2022-12-06T00:49:42.587Z,3.62
2022-12-06T00:50:42.587Z,3.66
2022-12-06T00:51:42.575Z,3.62
2022-12-06T00:52:42.620Z,3.60
2022-12-06T00:53:42.565Z,3.65
2022-12-06T00:54:42.558Z,3.69
2022-12-06T00:55:42.544Z,3.62
2022-12-06T00:56:42.549Z,3.63
2022-12-06T00:57:42.535Z,3.65
2022-12-06T00:58:42.534Z,3.70
2022-12-06T00:59:42.527Z,3.65
2022-12-06T01:00:42.514Z,3.62
2022-12-06T01:01:42.566Z,3.59
2022-12-06T01:02:42.525Z,3.62
2022-12-06T01:03:42.543Z,3.69
2022-12-06T01:04:42.504Z,3.74
2022-12-06T01:05:42.481Z,3.78
2022-12-06T01:06:42.491Z,3.76
2022-12-06T01:07:42.517Z,3.77
2022-12-06T01:08:42.460Z,3.68
2022-12-06T01:09:42.476Z,3.62
2022-12-06T01:10:42.442Z,3.65
2022-12-06T01:11:42.438Z,3.63
2022-12-06T01:12:42.423Z,3.63
2022-12-06T01:13:42.434Z,3.59
2022-12-06T01:14:42.424Z,3.60
2022-12-06T01:15:42.465Z,3.59
2022-12-06T01:16:42.498Z,3.63
2022-12-06T01:17:42.395Z,3.65
2022-12-06T01:18:42.388Z,3.53
2022-12-06T01:19:42.383Z,3.59
2022-12-06T01:20:42.380Z,3.53
2022-12-06T01:21:42.412Z,3.70
2022-12-06T01:22:42.373Z,3.68
2022-12-06T01:23:42.373Z,3.80
2022-12-06T01:24:42.357Z,3.73
2022-12-06T01:25:42.355Z,3.68
2022-12-06T01:26:42.344Z,3.73
2022-12-06T01:27:42.360Z,3.62
2022-12-06T01:28:42.349Z,3.56
2022-12-06T01:29:42.330Z,3.58
2022-12-06T01:30:42.398Z,3.58
2022-12-06T01:31:42.314Z,3.50
2022-12-06T01:32:42.314Z,3.58
2022-12-06T01:33:42.335Z,3.59
2022-12-06T01:34:42.290Z,3.51
2022-12-06T01:35:42.297Z,3.51
2022-12-06T01:36:42.292Z,3.40
2022-12-06T01:37:42.294Z,3.55
2022-12-06T01:38:42.266Z,3.53
2022-12-06T01:39:42.270Z,3.50
2022-12-06T01:40:42.259Z,3.42
2022-12-06T01:41:42.263Z,3.37
2022-12-06T01:42:42.240Z,3.41
2022-12-06T01:43:42.232Z,3.31
2022-12-06T01:44:42.234Z,3.44
2022-12-06T01:45:42.270Z,3.51
2022-12-06T01:46:42.255Z,3.40
2022-12-06T01:47:42.221Z,3.51
2022-12-06T01:48:42.195Z,3.45
2022-12-06T01:49:42.206Z,3.44
2022-12-06T01:50:42.196Z,3.42
2022-12-06T01:51:42.194Z,3.48
2022-12-06T01:52:42.165Z,3.37
2022-12-06T01:53:42.164Z,3.47
2022-12-06T01:54:42.160Z,3.48
2022-12-06T01:55:42.170Z,3.51
2022-12-06T01:56:42.146Z,3.41
2022-12-06T01:57:42.148Z,3.29
2022-12-06T01:58:42.130Z,3.36
2022-12-06T01:59:42.127Z,3.21
2022-12-06T02:00:42.129Z,3.34
2022-12-06T02:01:42.218Z,3.37
2022-12-06T02:02:42.189Z,3.42
2022-12-06T02:03:42.107Z,3.34
2022-12-06T02:04:42.112Z,3.36
2022-12-06T02:05:42.083Z,3.28
2022-12-06T02:06:42.082Z,3.40
2022-12-06T02:07:42.141Z,3.41
2022-12-06T02:08:42.058Z,3.40
2022-12-06T02:09:42.065Z,3.41
2022-12-06T02:10:42.076Z,3.45
2022-12-06T02:11:42.044Z,3.42
2022-12-06T02:12:42.062Z,3.32
2022-12-06T02:13:42.040Z,3.18
2022-12-06T02:14:42.059Z,3.34
2022-12-06T02:15:42.022Z,3.28
2022-12-06T02:16:42.069Z,3.29
2022-12-06T02:17:42.019Z,3.31
2022-12-06T02:18:42.023Z,3.22
2022-12-06T02:19:42.003Z,3.34
2022-12-06T02:20:41.987Z,3.22
2022-12-06T02:21:41.984Z,3.34
2022-12-06T02:22:41.974Z,3.22
2022-12-06T02:23:41.986Z,3.40
2022-12-06T02:24:41.958Z,3.32
2022-12-06T02:25:43.529Z,3.26
2022-12-06T02:26:41.951Z,3.40
2022-12-06T02:27:41.939Z,3.28
2022-12-06T02:28:41.936Z,3.44
2022-12-06T02:29:41.949Z,3.32
2022-12-06T02:30:41.991Z,3.45
2022-12-06T02:31:41.911Z,3.42
2022-12-06T02:32:41.925Z,3.34
2022-12-06T02:33:41.911Z,3.40
2022-12-06T02:34:41.907Z,3.40
2022-12-06T02:35:41.892Z,3.34
2022-12-06T02:36:41.894Z,3.40
2022-12-06T02:37:41.874Z,3.36
2022-12-06T02:38:41.890Z,3.44
2022-12-06T02:39:41.867Z,3.37
2022-12-06T02:40:41.872Z,3.45
2022-12-06T02:41:41.854Z,3.48
2022-12-06T02:42:41.838Z,3.37
2022-12-06T02:43:41.838Z,3.51
2022-12-06T02:44:41.824Z,3.50
2022-12-06T02:45:41.846Z,3.53
2022-12-06T02:46:41.872Z,3.62
2022-12-06T02:47:41.816Z,3.66
2022-12-06T02:48:41.824Z,3.78
2022-12-06T02:49:41.798Z,3.74
2022-12-06T02:50:41.785Z,3.69
2022-12-06T02:51:41.789Z,3.63
2022-12-06T02:52:41.782Z,3.66
2022-12-06T02:53:41.778Z,3.65
2022-12-06T02:54:41.801Z,3.60
2022-12-06T02:55:41.767Z,3.59
2022-12-06T02:56:41.776Z,3.66
2022-12-06T02:57:41.751Z,3.63
2022-12-06T02:58:41.759Z,3.53
2022-12-06T02:59:41.739Z,3.56
2022-12-06T03:00:41.729Z,3.56
2022-12-06T03:01:41.780Z,3.60
2022-12-06T03:02:41.870Z,3.59
2022-12-06T03:03:41.728Z,3.62
2022-12-06T03:04:41.709Z,3.53
2022-12-06T03:05:41.700Z,3.55
2022-12-06T03:06:41.734Z,3.44
2022-12-06T03:07:41.730Z,3.45
2022-12-06T03:08:41.677Z,3.48
2022-12-06T03:09:41.687Z,3.45
2022-12-06T03:10:41.668Z,3.48
2022-12-06T03:11:41.665Z,3.40
2022-12-06T03:12:41.652Z,3.41
2022-12-06T03:13:41.649Z,3.44
2022-12-06T03:14:41.655Z,3.50
2022-12-06T03:15:41.681Z,3.53
2022-12-06T03:16:41.617Z,3.50
2022-12-06T03:17:41.622Z,3.47
2022-12-06T03:18:41.608Z,3.55
2022-12-06T03:19:41.607Z,3.50
2022-12-06T03:20:41.611Z,3.53
2022-12-06T03:21:41.603Z,3.45
2022-12-06T03:22:41.584Z,3.48
2022-12-06T03:23:41.587Z,3.59
2022-12-06T03:24:41.576Z,3.55
2022-12-06T03:25:41.593Z,3.45
2022-12-06T03:26:41.558Z,3.53
2022-12-06T03:27:41.562Z,3.56
2022-12-06T03:28:41.547Z,3.47
2022-12-06T03:29:41.544Z,3.55
2022-12-06T03:30:41.568Z,3.44
2022-12-06T03:31:41.542Z,3.50
2022-12-06T03:32:41.523Z,3.48
2022-12-06T03:33:41.517Z,3.51
2022-12-06T03:34:41.511Z,3.44
2022-12-06T03:35:41.506Z,3.45
2022-12-06T03:36:41.512Z,3.50
2022-12-06T03:37:41.492Z,3.47
2022-12-06T03:38:41.483Z,3.50
2022-12-06T03:39:41.482Z,3.55
2022-12-06T03:40:41.487Z,3.51
2022-12-06T03:41:41.466Z,3.47
2022-12-06T03:42:41.452Z,3.45
2022-12-06T03:43:41.453Z,3.42
2022-12-06T03:44:41.438Z,3.29
2022-12-06T03:45:41.484Z,3.36
2022-12-06T03:46:41.482Z,3.36
2022-12-06T03:47:41.429Z,3.28
2022-12-06T03:48:41.420Z,3.18
2022-12-06T03:49:41.415Z,3.32
2022-12-06T03:50:41.407Z,3.42
2022-12-06T03:51:41.397Z,3.40
2022-12-06T03:52:41.410Z,3.40
2022-12-06T03:53:41.409Z,3.37
2022-12-06T03:54:41.383Z,3.36
2022-12-06T03:55:41.379Z,3.37
2022-12-06T03:56:41.369Z,3.42
2022-12-06T03:57:41.358Z,3.40
2022-12-06T03:58:41.353Z,3.32
2022-12-06T03:59:41.361Z,3.40
2022-12-06T04:00:41.357Z,3.29
2022-12-06T04:01:41.389Z,3.36
2022-12-06T04:02:41.328Z,3.34
2022-12-06T04:03:41.365Z,3.40
2022-12-06T04:04:41.324Z,3.34
2022-12-06T04:05:41.343Z,3.18
2022-12-06T04:06:41.301Z,3.19
2022-12-06T04:07:41.325Z,3.28
2022-12-06T04:08:41.289Z,3.19
2022-12-06T04:09:41.285Z,3.18
2022-12-06T04:10:41.275Z,3.26
2022-12-06T04:11:41.287Z,3.23
2022-12-06T04:12:41.260Z,3.32
2022-12-06T04:13:41.266Z,3.26
2022-12-06T04:14:41.246Z,3.18
2022-12-06T04:15:41.311Z,3.36
2022-12-06T04:16:41.249Z,3.23
2022-12-06T04:17:41.236Z,3.19
2022-12-06T04:18:41.233Z,3.26
2022-12-06T04:19:41.234Z,3.28
2022-12-06T04:20:41.207Z,3.28
2022-12-06T04:21:41.203Z,3.16
2022-12-06T04:22:41.198Z,3.10
2022-12-06T04:23:41.196Z,3.13
2022-12-06T04:24:41.183Z,3.13
2022-12-06T04:25:41.203Z,3.14
2022-12-06T04:26:41.173Z,3.11
2022-12-06T04:27:41.167Z,3.23
2022-12-06T04:28:41.152Z,3.11
2022-12-06T04:29:41.150Z,3.14
2022-12-06T04:30:41.153Z,3.11
2022-12-06T04:31:41.224Z,3.03
2022-12-06T04:32:41.137Z,3.08
2022-12-06T04:33:41.130Z,2.97
2022-12-06T04:34:41.137Z,2.98
2022-12-06T04:35:41.128Z,3.14
2022-12-06T04:36:41.108Z,2.97
2022-12-06T04:37:41.102Z,3.05
2022-12-06T04:38:41.093Z,3.05
2022-12-06T04:39:41.113Z,3.16
2022-12-06T04:40:41.093Z,3.14
2022-12-06T04:41:41.112Z,3.13
2022-12-06T04:42:41.059Z,3.16
2022-12-06T04:43:41.058Z,3.11
2022-12-06T04:44:41.068Z,3.13
2022-12-06T04:45:41.061Z,3.22
2022-12-06T04:46:41.115Z,3.11
2022-12-06T04:47:41.054Z,3.18
2022-12-06T04:48:41.031Z,3.11
2022-12-06T04:49:41.028Z,3.16
2022-12-06T04:50:41.038Z,3.14
2022-12-06T04:51:41.017Z,3.16
2022-12-06T04:52:41.003Z,3.14
2022-12-06T04:53:40.995Z,3.14
2022-12-06T04:54:41.002Z,3.11
2022-12-06T04:55:40.988Z,3.26
2022-12-06T04:56:40.987Z,3.11
2022-12-06T04:57:40.970Z,3.18
2022-12-06T04:58:40.961Z,3.01
2022-12-06T04:59:41.002Z,2.98
2022-12-06T05:00:40.987Z,3.03
2022-12-06T05:01:40.948Z,3.07
2022-12-06T05:02:40.934Z,3.05
2022-12-06T05:03:44.155Z,3.04
2022-12-06T05:04:40.927Z,3.03
2022-12-06T05:05:40.941Z,3.05
2022-12-06T05:06:40.914Z,3.10
2022-12-06T05:07:40.954Z,3.18
2022-12-06T05:08:40.901Z,3.13
2022-12-06T05:09:40.896Z,3.19
2022-12-06T05:10:40.889Z,3.11
2022-12-06T05:11:40.883Z,3.10
2022-12-06T05:12:40.888Z,3.14
2022-12-06T05:13:40.862Z,3.13
2022-12-06T05:14:40.864Z,3.13
2022-12-06T05:15:40.863Z,3.22
2022-12-06T05:16:40.881Z,3.25
2022-12-06T05:17:40.856Z,3.25
2022-12-06T05:18:40.844Z,3.28
2022-12-06T05:19:40.833Z,3.23
2022-12-06T05:20:40.829Z,3.23
2022-12-06T05:21:40.833Z,3.16
2022-12-06T05:22:40.803Z,3.19
2022-12-06T05:23:40.805Z,3.16
2022-12-06T05:24:40.798Z,3.23
2022-12-06T05:25:40.790Z,3.16
2022-12-06T05:26:40.794Z,3.13
2022-12-06T05:27:40.791Z,3.21
2022-12-06T05:28:40.769Z,3.19
2022-12-06T05:29:40.769Z,3.05
2022-12-06T05:30:40.754Z,3.07
2022-12-06T05:31:40.812Z,3.11
2022-12-06T05:32:40.749Z,3.18
2022-12-06T05:33:40.800Z,3.14
2022-12-06T05:34:40.730Z,3.18
2022-12-06T05:35:40.729Z,3.13
2022-12-06T05:36:40.710Z,3.14
2022-12-06T05:37:40.712Z,3.14
2022-12-06T05:38:40.703Z,3.16
2022-12-06T05:39:40.722Z,3.16
2022-12-06T05:40:40.718Z,3.16
2022-12-06T05:41:40.691Z,3.14
2022-12-06T05:42:40.668Z,3.16
2022-12-06T05:43:40.683Z,3.04
2022-12-06T05:44:40.662Z,2.95
2022-12-06T05:45:40.722Z,3.04
2022-12-06T05:46:40.663Z,3.03
2022-12-06T05:47:40.653Z,3.00
2022-12-06T05:48:40.635Z,2.95
2022-12-06T05:49:40.636Z,2.95
2022-12-06T05:50:40.633Z,2.90
2022-12-06T05:51:40.613Z,2.90
2022-12-06T05:52:40.643Z,2.98
2022-12-06T05:53:40.603Z,3.05
2022-12-06T05:54:40.594Z,3.10
2022-12-06T05:55:40.606Z,2.92
2022-12-06T05:56:40.588Z,2.98
2022-12-06T05:57:45.611Z,3.03
2022-12-06T05:58:41.608Z,3.01
2022-12-06T05:59:40.564Z,3.13
2022-12-06T06:00:40.549Z,3.03
2022-12-06T06:01:40.602Z,3.05
2022-12-06T06:02:40.642Z,3.07
2022-12-06T06:03:46.954Z,3.07
2022-12-06T06:04:40.528Z,2.93
2022-12-06T06:05:40.520Z,3.03
2022-12-06T06:06:40.525Z,3.00
2022-12-06T06:07:40.585Z,3.00
2022-12-06T06:08:40.509Z,2.98
2022-12-06T06:09:40.499Z,2.98
2022-12-06T06:10:40.488Z,3.04
2022-12-06T06:11:40.480Z,3.08
2022-12-06T06:12:40.473Z,3.05
2022-12-06T06:13:40.488Z,3.07
2022-12-06T06:14:40.465Z,2.98
2022-12-06T06:15:40.474Z,3.11
2022-12-06T06:16:40.532Z,3.08
2022-12-06T06:17:40.451Z,3.11
2022-12-06T06:18:40.453Z,3.01
2022-12-06T06:19:40.439Z,3.18
2022-12-06T06:20:40.425Z,3.07
2022-12-06T06:21:40.443Z,3.07
2022-12-06T06:22:40.417Z,3.16
2022-12-06T06:23:40.405Z,3.16
2022-12-06T06:24:40.392Z,3.16
2022-12-06T06:25:40.391Z,3.16
2022-12-06T06:26:40.383Z,3.08
2022-12-06T06:27:40.403Z,3.16
2022-12-06T06:28:40.370Z,3.08
2022-12-06T06:29:45.153Z,3.21
2022-12-06T06:30:41.390Z,3.07
2022-12-06T06:31:40.413Z,3.13
2022-12-06T06:32:40.355Z,3.14
2022-12-06T06:33:40.360Z,3.05
2022-12-06T06:34:40.343Z,3.01
2022-12-06T06:35:40.347Z,3.07
2022-12-06T06:36:45.561Z,3.04
2022-12-06T06:37:40.323Z,3.14
2022-12-06T06:38:40.316Z,3.19
2022-12-06T06:39:40.310Z,3.11
2022-12-06T06:40:40.328Z,3.18
2022-12-06T06:41:40.296Z,3.19
2022-12-06T06:42:40.290Z,3.08
2022-12-06T06:43:40.282Z,3.13
2022-12-06T06:44:40.273Z,3.14
2022-12-06T06:45:40.296Z,3.18
2022-12-06T06:46:40.279Z,3.13
2022-12-06T06:47:40.257Z,3.11
2022-12-06T06:48:40.247Z,3.18
2022-12-06T06:49:40.246Z,3.07
2022-12-06T06:50:40.273Z,3.14
2022-12-06T06:51:40.232Z,3.00
2022-12-06T06:52:40.227Z,3.07
2022-12-06T06:53:40.222Z,3.16
2022-12-06T06:54:40.228Z,3.03
2022-12-06T06:55:40.209Z,3.04
2022-12-06T06:56:40.239Z,3.04
2022-12-06T06:57:40.199Z,3.08
2022-12-06T06:58:40.184Z,3.03
2022-12-06T06:59:40.181Z,3.11
2022-12-06T07:00:40.179Z,3.08
2022-12-06T07:01:40.248Z,3.18
2022-12-06T07:02:40.238Z,3.19
2022-12-06T07:03:40.157Z,3.07
2022-12-06T07:04:40.163Z,3.13
2022-12-06T07:05:40.151Z,3.00
2022-12-06T07:06:40.141Z,3.16
2022-12-06T07:07:40.188Z,3.08
2022-12-06T07:08:40.128Z,3.11
2022-12-06T07:09:40.125Z,3.08
2022-12-06T07:10:40.124Z,3.14
2022-12-06T07:11:40.115Z,3.14
2022-12-06T07:12:40.124Z,3.21
2022-12-06T07:13:40.105Z,3.16
2022-12-06T07:14:40.102Z,3.14
2022-12-06T07:15:40.086Z,3.19
2022-12-06T07:16:40.105Z,3.13
2022-12-06T07:17:40.078Z,3.18
2022-12-06T07:18:40.083Z,3.13
2022-12-06T07:19:40.058Z,3.18
2022-12-06T07:20:40.076Z,3.08
2022-12-06T07:21:40.056Z,3.10
2022-12-06T07:22:40.041Z,3.13
2022-12-06T07:23:40.041Z,3.08
2022-12-06T07:24:43.652Z,3.10
2022-12-06T07:25:41.063Z,3.05
2022-12-06T07:26:40.021Z,3.00
2022-12-06T07:27:40.013Z,3.10
2022-12-06T07:28:40.006Z,3.05
2022-12-06T07:29:40.010Z,3.08
2022-12-06T07:30:40.081Z,3.16
2022-12-06T07:31:40.052Z,3.04
2022-12-06T07:32:39.981Z,3.07
2022-12-06T07:33:39.984Z,3.08
2022-12-06T07:34:39.975Z,3.00
2022-12-06T07:36:10.956Z,3.04
2022-12-06T07:36:40.985Z,3.13
2022-12-06T07:37:39.958Z,3.16
2022-12-06T07:38:39.961Z,3.32
2022-12-06T07:39:39.949Z,3.23
2022-12-06T07:41:39.955Z,3.14
2022-12-06T07:42:39.926Z,3.11
2022-12-06T07:43:39.922Z,3.16
2022-12-06T07:44:39.936Z,3.22
2022-12-06T07:45:39.971Z,3.31
2022-12-06T07:46:39.914Z,3.14
2022-12-06T07:47:39.929Z,3.22
2022-12-06T07:48:39.893Z,3.23
2022-12-06T07:49:39.885Z,3.21
2022-12-06T07:50:39.891Z,3.11
2022-12-06T07:51:39.880Z,3.13
2022-12-06T07:52:39.876Z,3.22
2022-12-06T07:53:39.861Z,3.25
2022-12-06T07:54:39.867Z,3.19
2022-12-06T07:55:39.857Z,3.19
2022-12-06T07:56:39.843Z,3.21
2022-12-06T07:57:43.457Z,3.14
2022-12-06T07:58:39.829Z,3.16
2022-12-06T07:59:39.843Z,3.18
2022-12-06T08:00:39.838Z,3.31
2022-12-06T08:01:39.941Z,3.29
2022-12-06T08:02:39.823Z,3.28
2022-12-06T08:03:39.802Z,3.22
2022-12-06T08:04:39.871Z,3.25
2022-12-06T08:05:39.803Z,3.18
2022-12-06T08:06:39.786Z,3.18
2022-12-06T08:07:39.854Z,3.21
2022-12-06T08:08:39.771Z,3.23
2022-12-06T08:09:39.782Z,3.32
2022-12-06T08:10:39.755Z,3.31
2022-12-06T08:11:39.768Z,3.31
2022-12-06T08:12:39.754Z,3.28
2022-12-06T08:13:39.764Z,3.32
2022-12-06T08:14:39.737Z,3.41
2022-12-06T08:15:39.796Z,3.48
2022-12-06T08:16:39.717Z,3.53
2022-12-06T08:17:39.714Z,3.50
2022-12-06T08:18:39.714Z,3.50
2022-12-06T08:19:39.756Z,3.37
2022-12-06T08:20:39.695Z,3.41
2022-12-06T08:21:39.691Z,3.50
2022-12-06T08:22:39.690Z,3.55
2022-12-06T08:23:39.672Z,3.53
2022-12-06T08:24:39.659Z,3.55
2022-12-06T08:25:39.677Z,3.47
2022-12-06T08:26:39.652Z,3.42
2022-12-06T08:27:39.642Z,3.47
2022-12-06T08:28:39.635Z,3.55
2022-12-06T08:29:39.646Z,3.50
2022-12-06T08:30:39.693Z,3.60
2022-12-06T08:31:39.687Z,3.58
2022-12-06T08:32:39.613Z,3.56
2022-12-06T08:33:39.614Z,3.48
2022-12-06T08:34:39.602Z,3.45
2022-12-06T08:35:39.593Z,3.44
2022-12-06T08:36:39.603Z,3.32
2022-12-06T08:37:39.610Z,3.36
2022-12-06T08:38:39.572Z,3.40
2022-12-06T08:39:39.567Z,3.45
2022-12-06T08:40:39.563Z,3.34
2022-12-06T08:41:39.572Z,3.28
2022-12-06T08:42:39.560Z,3.41
2022-12-06T08:43:39.547Z,3.50
2022-12-06T08:44:39.538Z,3.44
2022-12-06T08:45:39.531Z,3.50
2022-12-06T08:46:39.585Z,3.55
2022-12-06T08:47:39.532Z,3.48
2022-12-06T08:48:42.977Z,3.50
2022-12-06T08:49:39.523Z,3.45
2022-12-06T08:50:39.496Z,3.45
2022-12-06T08:51:39.496Z,3.56
2022-12-06T08:52:39.484Z,3.41
2022-12-06T08:53:39.515Z,3.59
2022-12-06T08:54:39.488Z,3.58
2022-12-06T08:55:39.468Z,3.59
2022-12-06T08:56:39.457Z,3.63
2022-12-06T08:57:39.473Z,3.62
2022-12-06T08:58:39.444Z,3.59
2022-12-06T08:59:39.470Z,3.63
2022-12-06T09:00:39.436Z,3.66
2022-12-06T09:01:39.480Z,3.63
2022-12-06T09:02:39.448Z,3.53
2022-12-06T09:03:39.422Z,3.58
2022-12-06T09:04:39.497Z,3.63
2022-12-06T09:05:39.430Z,3.55
2022-12-06T09:06:39.420Z,3.58
2022-12-06T09:07:39.410Z,3.45
2022-12-06T09:08:39.390Z,3.60
2022-12-06T09:09:39.391Z,3.56
2022-12-06T09:10:39.373Z,3.58
2022-12-06T09:11:39.371Z,3.56
2022-12-06T09:12:39.382Z,3.55
2022-12-06T09:13:39.361Z,3.62
2022-12-06T09:14:39.358Z,3.59
2022-12-06T09:15:39.419Z,3.42
2022-12-06T09:16:39.343Z,3.47
2022-12-06T09:17:39.348Z,3.60
2022-12-06T09:18:39.328Z,3.47
2022-12-06T09:19:39.336Z,3.44
2022-12-06T09:20:39.322Z,3.40
2022-12-06T09:21:39.330Z,3.56
2022-12-06T09:22:39.308Z,3.51
2022-12-06T09:23:39.320Z,3.51
2022-12-06T09:24:39.305Z,3.55
2022-12-06T09:25:39.319Z,3.56
2022-12-06T09:26:39.302Z,3.59
2022-12-06T09:27:39.277Z,3.50
2022-12-06T09:28:39.300Z,3.53
2022-12-06T09:29:40.962Z,3.63
2022-12-06T09:30:39.281Z,3.63
2022-12-06T09:31:39.308Z,3.58
2022-12-06T09:32:39.247Z,3.60
2022-12-06T09:33:39.294Z,3.65
2022-12-06T09:34:39.252Z,3.62
2022-12-06T09:35:39.235Z,3.63
2022-12-06T09:36:39.227Z,3.58
2022-12-06T09:37:39.219Z,3.63
2022-12-06T09:38:39.220Z,3.60
2022-12-06T09:39:39.215Z,3.58
2022-12-06T09:40:42.843Z,3.68
2022-12-06T09:41:39.190Z,3.73
2022-12-06T09:42:39.218Z,3.78
2022-12-06T09:43:39.181Z,3.73
2022-12-06T09:44:39.165Z,3.73
2022-12-06T09:45:39.215Z,3.74
2022-12-06T09:46:39.218Z,3.81
2022-12-06T09:47:39.159Z,3.73
2022-12-06T09:48:41.795Z,3.68
2022-12-06T09:49:40.149Z,3.66
2022-12-06T09:50:39.133Z,3.69
2022-12-06T09:51:39.137Z,3.70
2022-12-06T09:52:39.118Z,3.74
2022-12-06T09:53:39.122Z,3.78
2022-12-06T09:54:39.108Z,3.83
2022-12-06T09:55:39.119Z,3.78
2022-12-06T09:56:39.110Z,3.91
2022-12-06T09:57:39.086Z,3.96
2022-12-06T09:58:39.079Z,3.88
2022-12-06T09:59:39.073Z,3.86
2022-12-06T10:00:39.098Z,3.91
2022-12-06T10:01:39.122Z,3.84
2022-12-06T10:02:39.152Z,3.81
2022-12-06T10:03:39.052Z,3.84
2022-12-06T10:04:39.051Z,3.84
2022-12-06T10:05:39.064Z,3.78
2022-12-06T10:06:39.029Z,3.80
2022-12-06T10:07:39.160Z,3.80
2022-12-06T10:08:39.151Z,3.70
2022-12-06T10:09:39.012Z,3.73
2022-12-06T10:10:39.014Z,3.68
2022-12-06T10:11:39.028Z,3.81
2022-12-06T10:12:39.001Z,3.83
2022-12-06T10:13:38.999Z,3.76
2022-12-06T10:14:38.985Z,3.81
2022-12-06T10:15:39.081Z,3.87
2022-12-06T10:16:39.006Z,3.81
2022-12-06T10:17:38.971Z,3.91
2022-12-06T10:18:38.950Z,3.94
2022-12-06T10:19:38.946Z,3.86
2022-12-06T10:20:38.943Z,3.86
2022-12-06T10:21:38.958Z,3.76
2022-12-06T10:22:38.932Z,3.74
2022-12-06T10:23:38.933Z,3.80
2022-12-06T10:24:38.927Z,3.78
2022-12-06T10:25:38.926Z,3.65
2022-12-06T10:26:38.914Z,3.81
2022-12-06T10:27:38.923Z,3.77
2022-12-06T10:28:38.891Z,3.84
2022-12-06T10:29:38.885Z,3.87
2022-12-06T10:30:38.895Z,3.80
2022-12-06T10:31:38.893Z,3.74
2022-12-06T10:32:38.856Z,3.77
2022-12-06T10:33:38.879Z,3.68
2022-12-06T10:34:40.303Z,3.88
2022-12-06T10:35:38.849Z,3.78
2022-12-06T10:36:38.850Z,3.80
2022-12-06T10:37:38.831Z,3.83
2022-12-06T10:38:38.825Z,3.88
2022-12-06T10:39:38.846Z,3.87
2022-12-06T10:40:38.858Z,3.91
2022-12-06T10:41:38.817Z,3.98
2022-12-06T10:42:38.809Z,4.01
2022-12-06T10:43:38.798Z,3.87
2022-12-06T10:44:38.783Z,3.96
2022-12-06T10:45:38.790Z,3.87
2022-12-06T10:46:38.860Z,3.83
2022-12-06T10:47:38.772Z,3.86
2022-12-06T10:48:38.760Z,3.94
2022-12-06T10:49:38.786Z,3.87
2022-12-06T10:50:38.760Z,3.83
2022-12-06T10:51:38.760Z,3.92
2022-12-06T10:52:38.737Z,4.01
2022-12-06T10:53:38.741Z,4.01
2022-12-06T10:54:38.749Z,4.08
2022-12-06T10:55:38.729Z,4.05
2022-12-06T10:56:38.714Z,4.02
2022-12-06T10:57:38.719Z,4.05
2022-12-06T10:58:38.708Z,3.99
2022-12-06T10:59:38.697Z,3.98
2022-12-06T11:00:38.738Z,4.05
2022-12-06T11:01:38.789Z,3.99
2022-12-06T11:02:38.742Z,4.01
2022-12-06T11:03:38.670Z,4.01
2022-12-06T11:04:38.662Z,4.04
2022-12-06T11:05:38.670Z,4.01
2022-12-06T11:06:38.662Z,4.02
2022-12-06T11:07:38.685Z,3.92
2022-12-06T11:08:38.674Z,3.99
2022-12-06T11:09:38.661Z,3.96
2022-12-06T11:10:38.627Z,4.06
2022-12-06T11:11:38.624Z,4.12
2022-12-06T11:12:38.615Z,4.08
2022-12-06T11:13:38.622Z,3.98
2022-12-06T11:14:38.682Z,4.06
2022-12-06T11:15:38.605Z,4.06
2022-12-06T11:16:38.625Z,4.01
2022-12-06T11:17:38.598Z,4.08
2022-12-06T11:18:38.595Z,4.02
2022-12-06T11:19:38.583Z,4.02
2022-12-06T11:20:38.586Z,4.10
2022-12-06T11:21:38.601Z,4.05
2022-12-06T11:22:38.551Z,4.04
2022-12-06T11:23:38.559Z,4.06
2022-12-06T11:24:41.926Z,4.06
2022-12-06T11:25:39.543Z,3.98
2022-12-06T11:26:38.535Z,4.04
2022-12-06T11:27:38.561Z,4.08
2022-12-06T11:28:38.553Z,4.02
2022-12-06T11:29:38.515Z,3.96
2022-12-06T11:30:38.498Z,4.02
2022-12-06T11:31:38.561Z,4.01
2022-12-06T11:32:38.483Z,4.12
2022-12-06T11:33:38.501Z,4.14
2022-12-06T11:34:38.502Z,4.20
2022-12-06T11:35:38.496Z,4.16
2022-12-06T11:36:38.461Z,4.17
2022-12-06T11:37:42.934Z,4.19
2022-12-06T11:38:39.569Z,4.22
2022-12-06T11:39:38.470Z,4.23
2022-12-06T11:40:38.438Z,4.22
2022-12-06T11:41:38.437Z,4.20
2022-12-06T11:42:38.435Z,4.04
2022-12-06T11:43:38.423Z,4.17
2022-12-06T11:44:38.430Z,4.05
2022-12-06T11:45:38.403Z,4.06
2022-12-06T11:46:38.457Z,4.16
2022-12-06T11:47:38.439Z,4.20
2022-12-06T11:48:38.387Z,4.19
2022-12-06T11:49:38.405Z,4.19
2022-12-06T11:50:38.380Z,4.14
2022-12-06T11:51:38.395Z,4.22
2022-12-06T11:52:38.382Z,4.22
2022-12-06T11:53:38.365Z,4.23
2022-12-06T11:54:38.350Z,4.13
2022-12-06T11:55:38.371Z,4.19
2022-12-06T11:56:38.358Z,4.22
2022-12-06T11:57:38.334Z,4.26
2022-12-06T11:58:38.325Z,4.30
2022-12-06T11:59:38.313Z,4.30
2022-12-06T12:00:38.357Z,4.30
2022-12-06T12:01:38.369Z,4.22
2022-12-06T12:02:38.365Z,4.26
2022-12-06T12:03:38.338Z,4.14
2022-12-06T12:04:38.281Z,4.31
2022-12-06T12:05:38.299Z,4.08
2022-12-06T12:06:38.276Z,4.20
2022-12-06T12:07:38.315Z,4.06
2022-12-06T12:08:38.268Z,4.19
2022-12-06T12:09:38.273Z,4.20
2022-12-06T12:10:38.266Z,4.06
2022-12-06T12:11:38.257Z,4.19
2022-12-06T12:12:38.250Z,4.12
2022-12-06T12:13:38.228Z,4.06
2022-12-06T12:14:38.226Z,4.06
2022-12-06T12:15:38.217Z,4.01
2022-12-06T12:16:38.258Z,4.19
2022-12-06T12:17:38.207Z,4.16
2022-12-06T12:18:38.208Z,4.16
2022-12-06T12:19:38.186Z,4.14
2022-12-06T12:20:38.213Z,4.06
2022-12-06T12:21:38.186Z,4.17
2022-12-06T12:22:38.185Z,4.10
2022-12-06T12:23:38.175Z,4.20
2022-12-06T12:24:56.406Z,4.17
2022-12-06T12:25:39.304Z,4.08
2022-12-06T12:26:38.142Z,4.19
2022-12-06T12:27:38.139Z,4.20
2022-12-06T12:28:38.128Z,4.19
2022-12-06T12:29:38.143Z,4.26
2022-12-06T12:30:38.153Z,4.32
2022-12-06T12:31:38.211Z,4.22
2022-12-06T12:32:38.104Z,4.34
2022-12-06T12:33:38.113Z,4.17
2022-12-06T12:34:42.749Z,4.30
2022-12-06T12:35:38.085Z,4.28
2022-12-06T12:36:38.116Z,4.30
2022-12-06T12:37:38.072Z,4.20
2022-12-06T12:38:38.072Z,4.20
2022-12-06T12:39:38.069Z,4.32
2022-12-06T12:40:38.060Z,4.17
2022-12-06T12:41:38.050Z,4.19
2022-12-06T12:42:38.057Z,4.10
2022-12-06T12:43:38.039Z,4.16
2022-12-06T12:44:39.353Z,4.17
2022-12-06T12:45:38.058Z,4.14
2022-12-06T12:46:38.096Z,4.22
2022-12-06T12:47:38.038Z,4.13
2022-12-06T12:48:38.029Z,4.20
2022-12-06T12:49:38.017Z,4.14
2022-12-06T12:50:37.992Z,4.19
2022-12-06T12:51:38.006Z,4.19
2022-12-06T12:52:37.999Z,4.28
2022-12-06T12:53:37.995Z,4.17
2022-12-06T12:54:37.992Z,4.14
2022-12-06T12:55:37.983Z,4.23
2022-12-06T12:56:37.970Z,4.12
2022-12-06T12:57:37.956Z,4.13
2022-12-06T12:58:37.999Z,4.19
2022-12-06T12:59:37.945Z,4.22
2022-12-06T13:00:37.934Z,4.14
2022-12-06T13:01:37.982Z,4.20
2022-12-06T13:02:37.958Z,4.13
2022-12-06T13:03:53.355Z,4.14
2022-12-06T13:04:38.944Z,4.16
2022-12-06T13:05:44.916Z,4.23
2022-12-06T13:06:38.891Z,4.14
2022-12-06T13:07:37.998Z,4.16
2022-12-06T13:08:37.875Z,4.16
2022-12-06T13:09:37.882Z,4.14
2022-12-06T13:10:37.898Z,4.08
2022-12-06T13:11:37.869Z,4.23
2022-12-06T13:12:37.861Z,4.13
2022-12-06T13:13:37.879Z,4.23
2022-12-06T13:14:37.864Z,4.17
2022-12-06T13:15:37.848Z,4.17
2022-12-06T13:16:37.883Z,4.26
2022-12-06T13:17:37.836Z,4.16
2022-12-06T13:18:37.820Z,4.28
2022-12-06T13:19:37.843Z,4.24